createdAt,value
2019-03-11T00:09:41.802Z,11.80
2019-03-11T00:19:46.746Z,11.50
2019-03-11T00:29:49.535Z,10.70
2019-03-11T00:39:50.068Z,10.70
2019-03-11T00:49:51.326Z,10.60
2019-03-11T00:59:52.621Z,10.50
2019-03-11T01:09:53.924Z,11.30
2019-03-11T01:19:55.210Z,11.00
2019-03-11T01:29:56.496Z,11.60
2019-03-11T01:39:57.785Z,11.30
2019-03-11T01:49:59.089Z,11.00
2019-03-11T02:00:00.372Z,10.80
2019-03-11T02:10:01.655Z,10.50
2019-03-11T02:20:02.919Z,10.40
2019-03-11T02:30:04.951Z,9.90
2019-03-11T02:40:06.211Z,9.90
2019-03-11T02:50:07.471Z,9.80
2019-03-11T03:00:08.767Z,9.40
2019-03-11T03:10:10.111Z,9.20
2019-03-11T03:20:11.408Z,8.70
2019-03-11T03:30:12.740Z,8.60
2019-03-11T03:40:14.039Z,8.50
2019-03-11T03:50:15.334Z,8.50
2019-03-11T04:00:16.717Z,8.40
2019-03-11T04:10:18.842Z,7.90
2019-03-11T04:20:20.979Z,7.70
2019-03-11T04:30:22.343Z,7.70
2019-03-11T04:40:24.418Z,7.30
2019-03-11T04:50:25.768Z,7.20
2019-03-11T05:00:27.097Z,7.40
2019-03-11T05:10:28.492Z,7.40
2019-03-11T05:20:29.906Z,7.70
2019-03-11T05:30:35.322Z,7.70
2019-03-11T05:40:36.653Z,7.70
2019-03-11T05:50:38.045Z,7.80
2019-03-11T06:00:39.402Z,7.80
2019-03-11T06:10:40.795Z,7.80
2019-03-11T06:20:42.101Z,7.60
2019-03-11T06:30:43.440Z,7.60
2019-03-11T06:40:46.003Z,7.60
2019-03-11T06:50:46.238Z,7.60
2019-03-11T07:00:47.538Z,7.50
2019-03-11T07:10:48.891Z,7.70
2019-03-11T07:20:50.217Z,8.20
2019-03-11T07:30:52.282Z,9.10
2019-03-11T07:40:53.582Z,9.10
2019-03-11T07:50:54.876Z,9.10
2019-03-11T08:00:56.210Z,10.30
2019-03-11T08:10:58.308Z,11.40
2019-03-11T08:20:59.697Z,11.40
2019-03-11T08:31:01.014Z,10.80
2019-03-11T08:41:03.111Z,12.00
2019-03-11T08:51:04.391Z,12.00
2019-03-11T15:10:58.227Z,8.00
2019-03-11T15:20:59.541Z,8.00
2019-03-11T15:31:10.118Z,7.90
2019-03-11T15:41:02.562Z,7.80
2019-03-11T15:51:04.555Z,7.60
2019-03-11T16:01:05.866Z,7.50
2019-03-11T16:11:07.117Z,7.50
2019-03-11T16:21:08.409Z,7.30
2019-03-11T16:31:09.739Z,7.10
2019-03-11T16:41:11.043Z,6.90
2019-03-11T16:51:12.463Z,6.60
2019-03-11T17:01:13.888Z,6.60
2019-03-11T17:11:17.042Z,6.20
2019-03-11T17:21:18.506Z,6.30
2019-03-11T17:31:20.115Z,6.10
2019-03-11T17:41:21.575Z,6.00
2019-03-11T17:51:22.942Z,5.80
2019-03-11T18:01:24.319Z,5.50
2019-03-11T18:11:26.971Z,5.40
2019-03-11T20:19:57.065Z,4.90
2019-03-11T20:40:05.854Z,4.70
2019-03-11T21:00:15.070Z,4.50
2019-03-11T21:30:29.843Z,4.20
2019-03-11T21:40:31.959Z,4.00
2019-03-11T21:50:33.288Z,4.00
2019-03-11T22:00:35.328Z,4.00
2019-03-11T22:10:35.957Z,4.10
2019-03-11T22:20:37.192Z,4.10
2019-03-11T22:30:38.493Z,4.10
2019-03-11T22:40:39.783Z,4.20
2019-03-11T22:50:41.071Z,4.10
2019-03-11T23:00:42.365Z,4.00
2019-03-11T23:10:43.650Z,4.20
2019-03-11T23:20:44.946Z,3.90
2019-03-11T23:30:46.244Z,3.70
2019-03-11T23:40:47.490Z,3.30
2019-03-11T23:50:48.766Z,3.00
